»·PEaware :: N656MA KELP-KROW

N656MA :: KELP-KROW

FLIGHT INFORMATION

Flight Status: Arrived
Operator: Privately registered:
United States
More flights under this callsign
Pilot: Orlando S. (26103)
Aircraft: CESSNA 172 SKYHAWK
(C172)
More flights by this aircraft type
Origin: KELP El Paso Intl
United States
Destination: KROW Roswell Industrial
United States
More flights between these airports :: More routes between these airports
Route: +
File this flight plan on PilotEdge
Remarks:
Altitude:
(Current/Filed)
9,500ft
Speed:
(Current/Filed)
100kts
Departed: 14-Jan-20 10:37 AM
Arrived: 14-Jan-20 12:04 PM
Distance/Time
Traveled:
129nm/1:26
Distance/Time
To Go:
Arrived

Flight Plot

Page will automatically refresh every two minutes.

Flight plan parsing failed; only flown route is shown


Map Options




Map Legend


Flown Route
Filed Route
Departure Airport
Arrival Airport
Navaid (VOR, NDB)
Fix

Horizontal Profiles

Position Reports

Time Latitude Longitude Heading Altitude Ground
Speed
14-Jan-20 10:13 31.800588 -106.396227 227 3962ft 0kts
14-Jan-20 10:14 31.800588 -106.396227 227 3962ft 0kts
14-Jan-20 10:15 31.800588 -106.396227 227 3962ft 0kts
14-Jan-20 10:16 31.800588 -106.396227 227 3962ft 0kts
14-Jan-20 10:17 31.800587 -106.396227 226 3962ft 0kts
14-Jan-20 10:18 31.800587 -106.396228 225 3962ft 0kts
14-Jan-20 10:19 31.800587 -106.396228 225 3962ft 0kts
14-Jan-20 10:20 31.800587 -106.396228 225 3962ft 0kts
14-Jan-20 10:21 31.800587 -106.396228 225 3962ft 0kts
14-Jan-20 10:22 31.800587 -106.396228 225 3962ft 0kts
14-Jan-20 10:23 31.800587 -106.396228 225 3962ft 0kts
14-Jan-20 10:24 31.801180 -106.396131 349 3962ft 0kts
14-Jan-20 10:25 31.801385 -106.392959 88 3962ft 18kts
14-Jan-20 10:26 31.800041 -106.390116 131 3962ft 19kts
14-Jan-20 10:27 31.799911 -106.384359 90 3962ft 16kts
14-Jan-20 10:28 31.799851 -106.377452 90 3962ft 24kts
14-Jan-20 10:29 31.799504 -106.370437 101 3962ft 20kts
14-Jan-20 10:30 31.799157 -106.363641 94 3962ft 21kts
14-Jan-20 10:31 31.799771 -106.360453 16 3962ft 0kts
14-Jan-20 10:32 31.799772 -106.360453 12 3962ft 0kts
14-Jan-20 10:33 31.799772 -106.360453 12 3962ft 0kts
14-Jan-20 10:34 31.799772 -106.360453 12 3962ft 0kts
14-Jan-20 10:35 31.799773 -106.360453 7 3962ft 0kts
14-Jan-20 10:36 31.800790 -106.362792 274 3962ft 48kts
14-Jan-20 10:37 31.800801 -106.385497 270 4566ft 73kts
14-Jan-20 10:38 31.787415 -106.383825 106 5271ft 87kts
14-Jan-20 10:39 31.786235 -106.355836 82 5947ft 89kts
14-Jan-20 10:40 31.787424 -106.326756 78 6606ft 91kts
14-Jan-20 10:41 31.806563 -106.316439 3 7264ft 79kts
14-Jan-20 10:42 31.828452 -106.310420 6 7890ft 81kts
14-Jan-20 10:44 31.851034 -106.304021 1 8466ft 84kts
14-Jan-20 10:45 31.874171 -106.300888 352 9020ft 84kts
14-Jan-20 10:46 31.892993 -106.280714 44 9498ft 105kts
14-Jan-20 10:47 31.912536 -106.252153 36 9883ft 112kts
14-Jan-20 10:48 31.934071 -106.224434 37 10261ft 114kts
14-Jan-20 10:49 31.957471 -106.195560 40 10164ft 125kts
14-Jan-20 10:50 31.978506 -106.166242 44 10246ft 126kts
14-Jan-20 10:51 32.004413 -106.141114 10 10245ft 116kts
14-Jan-20 10:52 32.034952 -106.133196 7 10272ft 113kts
14-Jan-20 10:53 32.059566 -106.103121 48 10073ft 138kts
14-Jan-20 10:54 32.084552 -106.068043 41 9760ft 138kts
14-Jan-20 10:55 32.111016 -106.036118 43 9504ft 136kts
14-Jan-20 10:56 32.134997 -106.002120 41 9346ft 130kts
14-Jan-20 10:57 32.158497 -105.968424 43 9199ft 130kts
14-Jan-20 10:58 32.180724 -105.936398 43 9375ft 124kts
14-Jan-20 10:59 32.203053 -105.904419 43 9549ft 130kts
14-Jan-20 11:00 32.226516 -105.871775 43 9551ft 131kts
14-Jan-20 11:01 32.250596 -105.839196 44 9552ft 132kts
14-Jan-20 11:02 32.275468 -105.806799 44 9554ft 134kts
14-Jan-20 11:02 32.296864 -105.780020 44 9555ft 135kts
14-Jan-20 11:04 32.327643 -105.742849 44 9556ft 136kts
14-Jan-20 11:05 32.354302 -105.711012 44 9556ft 136kts
14-Jan-20 11:05 32.376515 -105.684432 44 9557ft 136kts
14-Jan-20 11:07 32.407559 -105.647208 44 9557ft 136kts
14-Jan-20 11:07 32.429753 -105.620539 44 9557ft 136kts
14-Jan-20 11:08 32.456430 -105.588421 44 9557ft 136kts
14-Jan-20 11:10 32.487877 -105.551130 44 9530ft 138kts
14-Jan-20 11:10 32.510842 -105.524750 44 9530ft 137kts
14-Jan-20 11:11 32.538311 -105.493138 44 9530ft 137kts
14-Jan-20 11:12 32.565726 -105.461522 44 9530ft 137kts
14-Jan-20 11:13 32.593113 -105.429868 44 9531ft 137kts
14-Jan-20 11:15 32.624683 -105.393296 44 9531ft 138kts
14-Jan-20 11:15 32.647607 -105.366681 44 9531ft 138kts
14-Jan-20 11:16 32.675061 -105.335004 45 9522ft 137kts
14-Jan-20 11:17 32.702842 -105.303771 45 9513ft 137kts
14-Jan-20 11:18 32.730792 -105.273089 45 9504ft 136kts
14-Jan-20 11:19 32.758941 -105.242869 45 9495ft 136kts
14-Jan-20 11:20 32.787286 -105.213063 45 9486ft 135kts
14-Jan-20 11:21 32.815615 -105.183771 45 9482ft 135kts
14-Jan-20 11:22 32.843884 -105.154471 45 9486ft 134kts
14-Jan-20 11:23 32.870140 -105.123147 45 9490ft 133kts
14-Jan-20 11:24 32.892716 -105.088821 45 9496ft 131kts
14-Jan-20 11:25 32.915392 -105.054793 45 9498ft 131kts
14-Jan-20 11:26 32.938356 -105.020578 45 9498ft 132kts
14-Jan-20 11:27 32.961333 -104.986288 45 9493ft 132kts
14-Jan-20 11:28 32.984072 -104.951750 45 9483ft 132kts
14-Jan-20 11:29 33.003946 -104.919985 45 9471ft 107kts
14-Jan-20 11:30 33.019217 -104.893336 45 9462ft 87kts
14-Jan-20 11:31 33.032804 -104.867998 47 9125ft 107kts
14-Jan-20 11:32 33.049563 -104.841655 31 8630ft 98kts
14-Jan-20 11:33 33.066279 -104.817524 42 8187ft 92kts
14-Jan-20 11:34 33.082406 -104.794809 31 7699ft 87kts
14-Jan-20 11:35 33.100201 -104.775015 31 7294ft 86kts
14-Jan-20 11:36 33.115745 -104.751923 46 6967ft 93kts
14-Jan-20 11:37 33.132046 -104.727781 40 6642ft 93kts
14-Jan-20 11:38 33.150729 -104.707518 37 6302ft 90kts
14-Jan-20 11:39 33.168803 -104.686331 36 5931ft 91kts
14-Jan-20 11:40 33.183951 -104.662365 43 5621ft 89kts
14-Jan-20 11:41 33.175538 -104.650304 237 5722ft 74kts
14-Jan-20 11:42 33.159779 -104.669230 225 6116ft 79kts
14-Jan-20 11:43 33.138491 -104.679957 215 6537ft 83kts
14-Jan-20 11:44 33.146111 -104.696874 320 6848ft 50kts
14-Jan-20 11:45 33.158131 -104.710148 320 6770ft 74kts
14-Jan-20 11:46 33.175562 -104.727035 320 6761ft 84kts
14-Jan-20 11:47 33.193248 -104.744091 320 6756ft 71kts
14-Jan-20 11:48 33.207470 -104.757813 321 6758ft 60kts
14-Jan-20 11:49 33.219164 -104.769278 316 6742ft 50kts
14-Jan-20 11:50 33.224625 -104.766938 97 6599ft 96kts
14-Jan-20 11:51 33.219325 -104.737259 74 6708ft 89kts
14-Jan-20 11:52 33.228735 -104.710826 60 6667ft 89kts
14-Jan-20 11:53 33.240109 -104.684842 51 6230ft 96kts
14-Jan-20 11:54 33.254973 -104.658209 63 5564ft 98kts
14-Jan-20 11:55 33.263629 -104.627789 67 4916ft 96kts
14-Jan-20 11:56 33.274103 -104.599048 62 4381ft 90kts
14-Jan-20 11:57 33.285090 -104.575828 67 4279ft 74kts
14-Jan-20 11:58 33.293629 -104.551365 58 4723ft 86kts
14-Jan-20 11:59 33.298524 -104.523107 133 5017ft 102kts
14-Jan-20 12:00 33.276513 -104.530815 232 4619ft 89kts
14-Jan-20 12:01 33.269651 -104.551626 339 4096ft 62kts
14-Jan-20 12:02 33.284130 -104.539434 43 3785ft 69kts
14-Jan-20 12:03 33.293369 -104.529478 325 3674ft 17kts

Navigation Log

Ident Type
Flight plan parsing failed, navigation log unavailable